Terminal Aerodrome Forecast
Issued by NWS Bismarck, ND

Home | Current Version | Previous Version | Text Only | Print | Product List | Glossary Off
Versions: 1 2 3 4 5 6 7 8 9 10 11 12 13 14 15 16

000
FTUS43 KBIS 270300 AAA
TAFISN
TAF AMD
KISN 270315Z 2703/2724 32013KT P6SM SCT090
     FM270500 34008KT P6SM BKN070
     FM270900 34004KT P6SM BKN025
     FM271700 35009KT P6SM SCT250=

USA.gov is the U.S. government's official web portal to all federal, state and local government web resources and services.